createdAt,value
2022-08-05T00:00:16.101Z,5.75
2022-08-05T00:02:51.632Z,5.80
2022-08-05T00:05:27.206Z,6.60
2022-08-05T00:08:30.840Z,6.13
2022-08-05T00:11:01.368Z,6.57
2022-08-05T00:13:39.428Z,6.53
2022-08-05T00:16:13.740Z,6.90
2022-08-05T00:18:44.445Z,7.38
2022-08-05T00:21:12.674Z,7.63
2022-08-05T00:23:46.643Z,7.72
2022-08-05T00:26:20.669Z,7.63
2022-08-05T00:28:49.288Z,8.33
2022-08-05T00:31:16.448Z,7.60
2022-08-05T00:34:53.259Z,8.18
2022-08-05T00:37:12.726Z,8.25
2022-08-05T00:39:43.999Z,8.00
2022-08-05T00:42:35.351Z,8.40
2022-08-05T00:45:08.716Z,7.32
2022-08-05T00:47:57.425Z,8.20
2022-08-05T00:50:25.862Z,8.30
2022-08-05T00:52:54.940Z,8.48
2022-08-05T00:55:22.997Z,8.30
2022-08-05T00:58:02.037Z,9.23
2022-08-05T01:00:31.849Z,8.65
2022-08-05T01:03:00.678Z,8.70
2022-08-05T01:05:28.156Z,9.45
2022-08-05T01:08:40.660Z,9.13
2022-08-05T01:11:09.104Z,8.40
2022-08-05T01:13:57.324Z,8.57
2022-08-05T01:17:07.463Z,8.95
2022-08-05T01:20:02.479Z,8.63
2022-08-05T01:22:42.691Z,8.93
2022-08-05T01:25:43.347Z,8.10
2022-08-05T01:28:23.354Z,8.45
2022-08-05T01:31:01.047Z,8.45
2022-08-05T01:33:37.275Z,9.07
2022-08-05T01:36:13.140Z,7.90
2022-08-05T01:38:45.563Z,8.00
2022-08-05T01:41:14.892Z,8.18
2022-08-05T01:43:42.678Z,8.30
2022-08-05T01:46:16.293Z,8.50
2022-08-05T01:48:58.880Z,8.10
2022-08-05T01:51:26.967Z,8.82
2022-08-05T01:53:59.219Z,7.63
2022-08-05T01:58:13.737Z,7.93
2022-08-05T01:59:23.666Z,8.23
2022-08-05T02:01:54.712Z,8.50
2022-08-05T02:04:24.132Z,8.45
2022-08-05T02:06:52.905Z,8.20
2022-08-05T02:09:20.672Z,8.05
2022-08-05T02:12:21.135Z,8.02
2022-08-05T02:15:03.507Z,8.10
2022-08-05T02:18:28.726Z,8.23
2022-08-05T02:20:24.912Z,8.40
2022-08-05T02:23:03.024Z,8.70
2022-08-05T02:25:50.099Z,9.32
2022-08-05T02:28:28.912Z,8.73
2022-08-05T02:31:01.164Z,8.68
2022-08-05T02:33:36.152Z,8.82
2022-08-05T02:36:09.729Z,8.38
2022-08-05T02:38:43.474Z,8.10
2022-08-05T02:41:17.191Z,7.97
2022-08-05T02:44:02.469Z,8.82
2022-08-05T02:46:35.955Z,7.57
2022-08-05T02:49:21.858Z,7.75
2022-08-05T02:52:04.031Z,7.70
2022-08-05T02:54:35.861Z,8.07
2022-08-05T02:57:10.286Z,7.82
2022-08-05T02:59:55.316Z,7.80
2022-08-05T03:02:29.650Z,8.07
2022-08-05T03:04:58.055Z,8.30
2022-08-05T03:08:00.344Z,8.40
2022-08-05T03:10:21.871Z,8.40
2022-08-05T03:12:53.241Z,7.65
2022-08-05T03:15:21.245Z,8.10
2022-08-05T03:17:53.990Z,8.00
2022-08-05T03:20:24.550Z,7.70
2022-08-05T03:22:52.374Z,8.45
2022-08-05T03:25:32.764Z,8.13
2022-08-05T03:28:03.402Z,8.30
2022-08-05T03:30:34.729Z,8.30
2022-08-05T03:33:03.767Z,7.73
2022-08-05T03:35:33.785Z,7.45
2022-08-05T03:38:08.515Z,7.93
2022-08-05T03:40:35.845Z,8.30
2022-08-05T03:43:59.219Z,7.57
2022-08-05T03:45:57.514Z,7.93
2022-08-05T03:48:26.231Z,8.60
2022-08-05T03:52:38.910Z,7.90
2022-08-05T03:55:51.363Z,8.05
2022-08-05T03:57:16.278Z,7.80
2022-08-05T03:59:54.677Z,8.03
2022-08-05T04:02:38.245Z,7.70
2022-08-05T04:05:09.649Z,8.40
2022-08-05T04:07:57.287Z,8.43
2022-08-05T04:10:32.148Z,7.93
2022-08-05T04:13:04.632Z,8.00
2022-08-05T04:15:33.317Z,7.25
2022-08-05T04:18:07.198Z,8.57
2022-08-05T04:20:34.860Z,8.55
2022-08-05T04:23:01.838Z,8.25
2022-08-05T04:25:57.496Z,7.70
2022-08-05T04:28:17.278Z,8.40
2022-08-05T04:30:44.702Z,8.18
2022-08-05T04:33:12.819Z,8.02
2022-08-05T04:36:10.640Z,7.28
2022-08-05T04:38:39.926Z,7.57
2022-08-05T04:41:10.152Z,7.38
2022-08-05T04:43:40.676Z,7.07
2022-08-05T04:46:15.046Z,6.60
2022-08-05T04:48:58.026Z,6.90
2022-08-05T04:51:25.779Z,6.20
2022-08-05T04:53:57.685Z,6.47
2022-08-05T04:56:34.733Z,7.15
2022-08-05T04:59:22.151Z,6.70
2022-08-05T05:02:07.435Z,6.22
2022-08-05T05:04:35.739Z,6.90
2022-08-05T05:07:05.242Z,7.35
2022-08-05T05:09:37.498Z,6.82
2022-08-05T05:12:06.284Z,6.47
2022-08-05T05:14:36.250Z,6.75
2022-08-05T05:17:03.700Z,6.33
2022-08-05T05:19:39.631Z,6.47
2022-08-05T05:22:23.406Z,6.35
2022-08-05T05:24:57.795Z,6.35
2022-08-05T05:27:44.567Z,6.35
2022-08-05T05:30:29.292Z,6.27
2022-08-05T05:33:00.576Z,7.35
2022-08-05T05:35:37.788Z,7.72
2022-08-05T05:38:09.173Z,7.80
2022-08-05T05:40:46.623Z,8.10
2022-08-05T05:43:22.079Z,8.30
2022-08-05T05:46:05.252Z,8.57
2022-08-05T05:48:32.335Z,8.18
2022-08-05T05:51:15.097Z,8.60
2022-08-05T05:53:54.489Z,9.13
2022-08-05T05:56:33.111Z,8.80
2022-08-05T05:59:06.769Z,9.23
2022-08-05T06:01:39.711Z,9.25
2022-08-05T06:04:11.433Z,8.35
2022-08-05T06:06:47.260Z,9.05
2022-08-05T06:09:17.113Z,9.10
2022-08-05T06:12:01.866Z,9.00
2022-08-05T06:14:34.819Z,8.63
2022-08-05T06:17:22.271Z,8.10
2022-08-05T06:19:57.114Z,8.32
2022-08-05T06:22:33.477Z,8.47
2022-08-05T06:25:24.385Z,8.35
2022-08-05T06:28:11.203Z,8.98
2022-08-05T06:30:38.636Z,8.30
2022-08-05T06:33:05.460Z,8.95
2022-08-05T06:36:03.472Z,8.73
2022-08-05T06:38:36.025Z,8.98
2022-08-05T06:41:05.209Z,8.35
2022-08-05T06:43:58.966Z,9.50
2022-08-05T06:46:22.020Z,9.18
2022-08-05T06:48:59.258Z,9.17
2022-08-05T06:51:29.960Z,9.23
2022-08-05T06:54:02.370Z,8.73
2022-08-05T06:56:30.395Z,8.05
2022-08-05T06:59:01.702Z,8.27
2022-08-05T07:01:32.300Z,8.23
2022-08-05T07:04:02.482Z,8.18
2022-08-05T07:06:30.031Z,8.32
2022-08-05T07:08:59.210Z,8.75
2022-08-05T07:11:28.730Z,8.90
2022-08-05T07:14:15.419Z,8.20
2022-08-05T07:18:01.493Z,8.27
2022-08-05T07:22:27.636Z,8.70
2022-08-05T07:25:22.922Z,8.55
2022-08-05T07:27:57.459Z,8.20
2022-08-05T07:30:34.321Z,8.93
2022-08-05T07:33:05.580Z,8.57
2022-08-05T07:36:01.693Z,8.85
2022-08-05T07:38:32.581Z,8.52
2022-08-05T07:42:09.547Z,9.17
2022-08-05T07:43:56.438Z,8.05
2022-08-05T07:46:26.212Z,8.30
2022-08-05T07:49:04.225Z,7.78
2022-08-05T07:51:40.407Z,8.18
2022-08-05T07:54:16.173Z,8.07
2022-08-05T07:57:01.677Z,8.15
2022-08-05T07:59:40.128Z,7.72
2022-08-05T08:02:10.732Z,8.00
2022-08-05T08:04:49.357Z,8.00
2022-08-05T08:07:18.389Z,7.63
2022-08-05T08:09:52.574Z,6.95
2022-08-05T08:12:37.319Z,7.25
2022-08-05T08:15:15.585Z,7.28
2022-08-05T08:17:49.637Z,7.03
2022-08-05T08:21:00.126Z,7.93
2022-08-05T08:24:00.446Z,7.47
2022-08-05T08:26:00.330Z,7.70
2022-08-05T08:28:36.497Z,7.45
2022-08-05T08:31:09.779Z,7.95
2022-08-05T08:33:41.925Z,7.43
2022-08-05T08:36:29.605Z,7.47
2022-08-05T08:38:58.097Z,7.00
2022-08-05T08:41:52.393Z,7.28
2022-08-05T08:45:18.560Z,7.78
2022-08-05T08:47:47.747Z,7.23
2022-08-05T08:50:12.999Z,7.75
2022-08-05T08:52:47.381Z,7.57
2022-08-05T08:56:02.462Z,7.57
2022-08-05T08:58:06.671Z,7.70
2022-08-05T09:00:35.584Z,7.23
2022-08-05T09:03:06.566Z,7.25
2022-08-05T09:05:38.550Z,7.30
2022-08-05T09:08:26.443Z,7.72
2022-08-05T09:10:54.345Z,7.25
2022-08-05T09:13:21.451Z,7.20
2022-08-05T09:15:51.329Z,6.95
2022-08-05T09:18:18.437Z,7.00
2022-08-05T09:20:47.166Z,6.70
2022-08-05T09:23:18.832Z,7.10
2022-08-05T09:26:01.346Z,6.93
2022-08-05T09:28:33.488Z,7.68
2022-08-05T09:31:18.321Z,7.95
2022-08-05T09:33:51.078Z,7.10
2022-08-05T09:36:18.523Z,7.30
2022-08-05T09:39:00.735Z,7.17
2022-08-05T09:41:32.878Z,7.72
2022-08-05T09:44:05.170Z,7.22
2022-08-05T09:46:35.038Z,6.90
2022-08-05T09:49:19.596Z,6.78
2022-08-05T09:51:49.550Z,6.30
2022-08-05T09:54:29.557Z,7.07
2022-08-05T09:56:57.467Z,7.13
2022-08-05T09:59:27.412Z,6.95
2022-08-05T10:01:58.304Z,7.00
2022-08-05T10:04:38.460Z,7.00
2022-08-05T10:07:20.213Z,6.25
2022-08-05T10:10:13.794Z,6.85
2022-08-05T10:13:02.723Z,6.80
2022-08-05T10:15:41.329Z,6.45
2022-08-05T10:18:16.887Z,7.33
2022-08-05T10:20:52.857Z,6.07
2022-08-05T10:23:55.233Z,6.70
2022-08-05T10:26:15.001Z,6.45
2022-08-05T10:28:47.076Z,6.32
2022-08-05T10:32:53.220Z,6.43
2022-08-05T10:34:03.465Z,6.00
2022-08-05T10:36:30.920Z,6.22
2022-08-05T10:39:10.025Z,6.72
2022-08-05T10:42:00.865Z,6.85
2022-08-05T10:44:29.499Z,6.17
2022-08-05T10:46:57.149Z,6.47
2022-08-05T10:49:32.949Z,6.80
2022-08-05T10:52:03.228Z,6.82
2022-08-05T10:55:11.726Z,5.97
2022-08-05T10:57:44.837Z,6.33
2022-08-05T11:00:23.053Z,5.85
2022-08-05T11:02:59.265Z,6.00
2022-08-05T11:06:15.196Z,5.78
2022-08-05T11:09:16.714Z,6.25
2022-08-05T11:11:53.187Z,6.67
2022-08-05T11:17:57.083Z,6.00
2022-08-05T11:20:41.618Z,5.65
2022-08-05T11:23:33.771Z,6.07
2022-08-05T11:26:28.171Z,5.93
2022-08-05T11:28:56.754Z,5.53
2022-08-05T11:31:57.570Z,5.22
2022-08-05T11:34:36.748Z,5.65
2022-08-05T11:37:06.278Z,5.53
2022-08-05T11:39:55.200Z,5.47
2022-08-05T11:42:28.177Z,5.55
2022-08-05T11:45:03.540Z,5.95
2022-08-05T11:47:49.502Z,5.68
2022-08-05T11:50:18.057Z,5.78
2022-08-05T11:52:48.873Z,5.43
2022-08-05T11:55:17.160Z,5.88
2022-08-05T11:58:10.568Z,5.95
2022-08-05T12:00:38.382Z,5.93
2022-08-05T12:03:28.406Z,5.72
2022-08-05T12:06:02.054Z,5.40
2022-08-05T12:08:31.461Z,5.60
2022-08-05T12:11:05.521Z,5.30
2022-08-05T12:13:48.719Z,5.28
2022-08-05T12:16:19.272Z,5.80
2022-08-05T12:18:48.978Z,5.27
2022-08-05T12:21:29.881Z,5.65
2022-08-05T12:24:07.687Z,5.35
2022-08-05T12:26:50.612Z,5.22
2022-08-05T12:29:22.960Z,4.60
2022-08-05T12:32:02.145Z,4.90
2022-08-05T12:34:32.479Z,5.18
2022-08-05T12:37:07.549Z,5.60
2022-08-05T12:39:38.682Z,5.03
2022-08-05T12:42:16.164Z,4.85
2022-08-05T12:44:47.354Z,5.23
2022-08-05T12:47:27.563Z,5.38
2022-08-05T12:50:04.369Z,5.28
2022-08-05T12:52:39.348Z,5.00
2022-08-05T12:55:22.886Z,5.57
2022-08-05T12:58:50.348Z,5.00
2022-08-05T13:02:00.939Z,4.82
2022-08-05T13:03:32.281Z,4.68
2022-08-05T13:06:01.324Z,4.72
2022-08-05T13:08:32.860Z,5.00
2022-08-05T13:11:02.094Z,5.07
2022-08-05T13:14:05.324Z,5.18
2022-08-05T13:16:17.516Z,4.03
2022-08-05T13:18:52.101Z,5.07
2022-08-05T13:21:21.933Z,4.70
2022-08-05T13:23:54.527Z,4.77
2022-08-05T13:26:25.514Z,4.80
2022-08-05T13:28:57.424Z,4.70
2022-08-05T13:31:34.018Z,4.82
2022-08-05T13:34:22.942Z,4.68
2022-08-05T13:36:53.743Z,4.00
2022-08-05T13:40:12.729Z,4.57
2022-08-05T13:42:14.304Z,4.80
2022-08-05T13:44:45.858Z,4.05
2022-08-05T13:47:35.231Z,3.90
2022-08-05T13:50:04.111Z,4.40
2022-08-05T13:52:35.180Z,4.30
2022-08-05T13:55:07.457Z,4.03
2022-08-05T13:57:51.031Z,3.85
2022-08-05T14:00:26.921Z,4.40
2022-08-05T14:03:01.200Z,4.23
2022-08-05T14:05:29.292Z,3.85
2022-08-05T14:08:21.325Z,4.50
2022-08-05T14:11:03.197Z,5.00
2022-08-05T14:13:41.687Z,4.57
2022-08-05T14:16:11.478Z,4.23
2022-08-05T14:18:38.574Z,4.05
2022-08-05T14:22:06.997Z,4.30
2022-08-05T14:23:52.471Z,4.10
2022-08-05T14:26:37.054Z,4.25
2022-08-05T14:29:15.874Z,4.80
2022-08-05T14:32:02.631Z,4.75
2022-08-05T14:34:35.015Z,4.75
2022-08-05T14:37:04.224Z,4.60
2022-08-05T14:39:50.144Z,5.03
2022-08-05T14:42:29.318Z,4.57
2022-08-05T14:44:56.737Z,4.55
2022-08-05T14:48:04.146Z,4.82
2022-08-05T14:50:18.436Z,5.10
2022-08-05T14:52:53.040Z,4.97
2022-08-05T14:55:20.269Z,4.90
2022-08-05T14:57:54.210Z,5.05
2022-08-05T15:00:28.034Z,5.10
2022-08-05T15:02:56.543Z,4.80
2022-08-05T15:05:29.550Z,4.78
2022-08-05T15:08:11.310Z,5.30
2022-08-05T15:10:46.198Z,5.47
2022-08-05T15:13:13.942Z,5.68
2022-08-05T15:15:55.402Z,5.38
2022-08-05T15:18:23.454Z,5.88
2022-08-05T15:20:50.941Z,6.17
2022-08-05T15:23:18.314Z,5.45
2022-08-05T15:25:52.136Z,5.50
2022-08-05T15:28:27.744Z,5.57
2022-08-05T15:30:54.770Z,5.38
2022-08-05T15:34:04.759Z,5.63
2022-08-05T15:36:17.357Z,5.82
2022-08-05T15:41:01.026Z,5.35
2022-08-05T15:41:57.992Z,5.20
2022-08-05T15:44:27.717Z,6.05
2022-08-05T15:46:55.716Z,5.70
2022-08-05T15:49:39.945Z,5.22
2022-08-05T15:52:16.909Z,5.50
2022-08-05T15:54:55.900Z,6.40
2022-08-05T15:57:23.756Z,5.28
2022-08-05T15:59:56.696Z,6.17
2022-08-05T16:02:25.549Z,5.78
2022-08-05T16:04:54.544Z,5.90
2022-08-05T16:07:22.786Z,5.65
2022-08-05T16:09:50.712Z,6.10
2022-08-05T16:12:21.035Z,5.30
2022-08-05T16:14:48.460Z,6.15
2022-08-05T16:17:15.711Z,6.38
2022-08-05T16:20:04.779Z,5.72
2022-08-05T16:22:34.280Z,5.50
2022-08-05T16:25:07.924Z,6.20
2022-08-05T16:28:00.831Z,6.00
2022-08-05T16:30:28.873Z,5.72
2022-08-05T16:32:57.900Z,6.10
2022-08-05T16:35:28.712Z,5.97
2022-08-05T16:38:15.257Z,5.87
2022-08-05T16:40:51.990Z,6.10
2022-08-05T16:43:24.972Z,6.18
2022-08-05T16:46:04.818Z,5.95
2022-08-05T16:48:37.868Z,5.93
2022-08-05T16:51:08.932Z,5.83
2022-08-05T16:54:03.914Z,6.10
2022-08-05T16:56:29.485Z,6.05
2022-08-05T16:58:57.969Z,6.20
2022-08-05T17:01:25.128Z,6.32
2022-08-05T17:03:52.278Z,6.87
2022-08-05T17:06:20.100Z,6.47
2022-08-05T17:08:52.423Z,6.13
2022-08-05T17:11:23.786Z,6.97
2022-08-05T17:13:54.744Z,6.68
2022-08-05T17:16:37.735Z,6.63
2022-08-05T17:19:09.645Z,7.00
2022-08-05T17:21:39.747Z,6.45
2022-08-05T17:24:27.993Z,6.68
2022-08-05T17:26:58.030Z,8.13
2022-08-05T17:29:34.005Z,6.53
2022-08-05T17:32:16.764Z,6.68
2022-08-05T17:34:47.695Z,6.95
2022-08-05T17:37:40.937Z,6.78
2022-08-05T17:40:10.143Z,6.85
2022-08-05T17:42:41.731Z,6.87
2022-08-05T17:45:17.864Z,7.18
2022-08-05T17:47:52.996Z,7.32
2022-08-05T17:50:28.116Z,7.07
2022-08-05T17:52:56.670Z,6.80
2022-08-05T17:55:27.271Z,7.20
2022-08-05T17:57:54.682Z,6.90
2022-08-05T18:00:21.411Z,7.03
2022-08-05T18:02:56.734Z,7.15
2022-08-05T18:05:23.951Z,7.13
2022-08-05T18:07:56.760Z,7.23
2022-08-05T18:10:23.946Z,6.43
2022-08-05T18:12:51.461Z,6.75
2022-08-05T18:15:18.424Z,6.70
2022-08-05T18:18:01.077Z,7.15
2022-08-05T18:20:31.506Z,7.17
2022-08-05T18:23:00.626Z,7.18
2022-08-05T18:25:38.810Z,6.80
2022-08-05T18:28:09.631Z,7.03
2022-08-05T18:30:39.055Z,6.95
2022-08-05T18:33:08.549Z,6.90
2022-08-05T18:36:00.490Z,7.13
2022-08-05T18:38:28.506Z,6.90
2022-08-05T18:42:00.728Z,7.63
2022-08-05T18:43:42.850Z,6.80
2022-08-05T18:46:15.467Z,7.13
2022-08-05T18:48:46.535Z,6.85
2022-08-05T18:52:04.745Z,7.07
2022-08-05T18:54:19.890Z,6.38
2022-08-05T18:56:50.826Z,6.82
2022-08-05T18:59:44.036Z,7.27
2022-08-05T19:02:05.605Z,6.38
2022-08-05T19:05:01.326Z,7.05
2022-08-05T19:07:45.900Z,7.30
2022-08-05T19:10:18.708Z,6.60
2022-08-05T19:12:53.677Z,6.43
2022-08-05T19:15:45.114Z,7.32
2022-08-05T19:18:09.255Z,6.85
2022-08-05T19:20:41.785Z,7.50
2022-08-05T19:24:04.397Z,7.90
2022-08-05T19:26:01.974Z,7.20
2022-08-05T19:28:33.751Z,6.97
2022-08-05T19:31:05.751Z,7.53
2022-08-05T19:33:36.773Z,6.97
2022-08-05T19:36:07.258Z,6.97
2022-08-05T19:38:36.311Z,6.60
2022-08-05T19:41:08.982Z,6.93
2022-08-05T19:44:06.792Z,7.00
2022-08-05T19:46:30.875Z,6.93
2022-08-05T19:49:01.192Z,6.90
2022-08-05T19:52:06.181Z,6.93
2022-08-05T19:54:25.547Z,7.45
2022-08-05T19:56:58.586Z,7.35
2022-08-05T20:00:00.511Z,7.50
2022-08-05T20:02:13.113Z,7.43
2022-08-05T20:04:43.131Z,7.30
2022-08-05T20:07:13.829Z,7.35
2022-08-05T20:09:54.361Z,7.25
2022-08-05T20:12:24.570Z,6.90
2022-08-05T20:14:52.933Z,7.30
2022-08-05T20:17:23.291Z,6.93
2022-08-05T20:19:56.589Z,7.00
2022-08-05T20:22:27.029Z,8.20
2022-08-05T20:24:55.664Z,7.55
2022-08-05T20:27:27.465Z,7.85
2022-08-05T20:30:12.570Z,7.27
2022-08-05T20:32:45.172Z,7.57
2022-08-05T20:35:12.509Z,7.78
2022-08-05T20:38:07.689Z,8.02
2022-08-05T20:40:28.694Z,7.80
2022-08-05T20:43:00.162Z,7.80
2022-08-05T20:45:55.878Z,7.82
2022-08-05T20:48:16.377Z,7.72
2022-08-05T20:50:45.262Z,7.50
2022-08-05T20:53:16.119Z,7.30
2022-08-05T20:56:08.020Z,7.80
2022-08-05T20:58:36.218Z,7.25
2022-08-05T21:01:04.542Z,7.75
2022-08-05T21:03:34.639Z,7.50
2022-08-05T21:06:01.987Z,7.28
2022-08-05T21:08:41.603Z,7.80
2022-08-05T21:11:15.208Z,8.00
2022-08-05T21:13:59.930Z,8.02
2022-08-05T21:16:29.729Z,7.88
2022-08-05T21:19:00.456Z,8.00
2022-08-05T21:21:44.248Z,7.10
2022-08-05T21:24:15.983Z,7.55
2022-08-05T21:26:47.198Z,7.40
2022-08-05T21:29:20.660Z,7.40
2022-08-05T21:31:53.146Z,7.47
2022-08-05T21:34:20.957Z,7.83
2022-08-05T21:36:49.265Z,7.85
2022-08-05T21:39:17.017Z,8.00
2022-08-05T21:42:01.034Z,7.53
2022-08-05T21:44:28.327Z,7.28
2022-08-05T21:46:58.038Z,7.40
2022-08-05T21:49:48.103Z,7.95
2022-08-05T21:52:21.904Z,7.78
2022-08-05T21:54:55.879Z,7.47
2022-08-05T21:57:31.474Z,6.63
2022-08-05T22:00:10.931Z,6.93
2022-08-05T22:02:42.643Z,7.72
2022-08-05T22:05:11.190Z,6.40
2022-08-05T22:07:40.187Z,6.72
2022-08-05T22:10:27.056Z,6.80
2022-08-05T22:12:59.062Z,6.40
2022-08-05T22:16:01.135Z,6.00
2022-08-05T22:18:25.717Z,6.30
2022-08-05T22:20:53.026Z,6.63
2022-08-05T22:24:02.362Z,6.00
2022-08-05T22:26:49.633Z,5.80
2022-08-05T22:29:17.525Z,6.03
2022-08-05T22:31:45.829Z,5.68
2022-08-05T22:34:28.202Z,5.30
2022-08-05T22:36:58.390Z,5.25
2022-08-05T22:39:30.997Z,5.40
2022-08-05T22:42:11.436Z,4.97
2022-08-05T22:44:41.099Z,5.53
2022-08-05T22:47:13.934Z,5.15
2022-08-05T22:50:22.839Z,5.57
2022-08-05T22:52:44.096Z,5.07
2022-08-05T22:55:18.361Z,4.88
2022-08-05T22:57:46.648Z,5.45
2022-08-05T23:00:18.370Z,5.10
2022-08-05T23:02:48.182Z,4.97
2022-08-05T23:05:17.002Z,4.90
2022-08-05T23:07:48.462Z,5.40
2022-08-05T23:10:20.131Z,4.80
2022-08-05T23:12:55.068Z,5.18
2022-08-05T23:15:29.949Z,5.13
2022-08-05T23:18:03.691Z,5.13
2022-08-05T23:20:38.506Z,5.03
2022-08-05T23:23:08.363Z,4.75
2022-08-05T23:25:52.764Z,4.95
2022-08-05T23:28:26.849Z,4.93
2022-08-05T23:30:56.854Z,5.17
2022-08-05T23:34:03.965Z,5.20
2022-08-05T23:36:38.749Z,5.07
2022-08-05T23:39:08.599Z,5.10
2022-08-05T23:41:40.918Z,4.90
2022-08-05T23:44:08.870Z,4.63
2022-08-05T23:46:37.417Z,5.00
2022-08-05T23:49:16.861Z,4.93
2022-08-05T23:52:03.362Z,4.75
2022-08-05T23:54:38.206Z,4.20
2022-08-05T23:57:07.197Z,5.20
